Metar z pełnej godziny Komunikat METAR ze strony awiacja.imgw.pl Metar G00 EPWR METAR EPWR 171400Z 16005KT 9999 FEW030 24/14 Q1020 =